createdAt,value
2023-05-09T00:00:22.432Z,26.33
2023-05-09T00:01:22.482Z,26.34
2023-05-09T00:02:22.569Z,26.34
2023-05-09T00:03:22.794Z,26.33
2023-05-09T00:04:22.712Z,26.34
2023-05-09T00:05:22.665Z,26.34
2023-05-09T00:06:22.770Z,26.34
2023-05-09T00:07:22.724Z,26.34
2023-05-09T00:08:22.763Z,26.34
2023-05-09T00:09:22.786Z,26.34
2023-05-09T00:10:22.839Z,26.34
2023-05-09T00:11:22.896Z,26.34
2023-05-09T00:12:22.923Z,26.33
2023-05-09T00:13:23.062Z,26.34
2023-05-09T00:14:23.022Z,26.33
2023-05-09T00:15:23.081Z,26.33
2023-05-09T00:16:23.174Z,26.33
2023-05-09T00:17:23.169Z,26.34
2023-05-09T00:18:23.186Z,26.34
2023-05-09T00:19:23.233Z,26.33
2023-05-09T00:20:23.278Z,26.33
2023-05-09T00:21:23.367Z,26.33
2023-05-09T00:22:23.539Z,26.34
2023-05-09T00:23:23.422Z,26.34
2023-05-09T00:24:23.469Z,26.33
2023-05-09T00:25:23.534Z,26.34
2023-05-09T00:26:23.559Z,26.34
2023-05-09T00:27:23.585Z,26.34
2023-05-09T00:28:23.668Z,26.33
2023-05-09T00:29:23.687Z,26.33
2023-05-09T00:30:23.726Z,26.33
2023-05-09T00:31:23.752Z,26.33
2023-05-09T00:32:23.808Z,26.33
2023-05-09T00:33:23.858Z,26.33
2023-05-09T00:34:23.886Z,26.34
2023-05-09T00:35:23.949Z,26.33
2023-05-09T00:36:23.958Z,26.33
2023-05-09T00:37:24.024Z,26.34
2023-05-09T00:38:24.161Z,26.34
2023-05-09T00:39:24.149Z,26.34
2023-05-09T00:40:24.176Z,26.34
2023-05-09T00:41:24.194Z,26.34
2023-05-09T00:42:24.260Z,26.33
2023-05-09T00:43:24.278Z,26.34
2023-05-09T00:44:24.318Z,26.34
2023-05-09T00:45:24.383Z,26.34
2023-05-09T00:46:24.446Z,26.33
2023-05-09T00:47:24.507Z,26.34
2023-05-09T00:48:24.506Z,26.34
2023-05-09T00:49:24.576Z,26.34
2023-05-09T00:50:24.623Z,26.34
2023-05-09T00:51:24.656Z,26.34
2023-05-09T00:52:24.678Z,26.34
2023-05-09T00:53:24.730Z,26.33
2023-05-09T00:54:24.858Z,26.33
2023-05-09T00:55:24.848Z,26.34
2023-05-09T00:56:24.882Z,26.34
2023-05-09T00:57:24.919Z,26.33
2023-05-09T00:58:24.937Z,26.33
2023-05-09T00:59:24.968Z,26.34
2023-05-09T01:00:25.070Z,26.34
2023-05-09T01:01:25.128Z,26.33
2023-05-09T01:02:25.145Z,26.33
2023-05-09T01:03:25.233Z,26.33
2023-05-09T01:04:25.173Z,26.34
2023-05-09T01:05:25.308Z,26.33
2023-05-09T01:06:25.290Z,26.33
2023-05-09T01:07:25.311Z,26.33
2023-05-09T01:08:25.360Z,26.34
2023-05-09T01:09:25.421Z,26.33
2023-05-09T01:10:25.553Z,26.33
2023-05-09T01:11:25.501Z,26.34
2023-05-09T01:12:25.567Z,26.33
2023-05-09T01:13:25.676Z,26.34
2023-05-09T01:14:25.624Z,26.33
2023-05-09T01:15:25.700Z,26.33
2023-05-09T01:16:25.880Z,26.34
2023-05-09T01:17:25.802Z,26.33
2023-05-09T01:18:25.857Z,26.33
2023-05-09T01:19:25.882Z,26.33
2023-05-09T01:20:25.917Z,26.33
2023-05-09T01:21:25.989Z,26.33
2023-05-09T01:22:26.016Z,26.33
2023-05-09T01:23:26.064Z,26.34
2023-05-09T01:24:26.108Z,26.33
2023-05-09T01:25:26.144Z,26.34
2023-05-09T01:26:26.303Z,26.34
2023-05-09T01:27:26.241Z,26.34
2023-05-09T01:28:26.270Z,26.33
2023-05-09T01:29:26.354Z,26.33
2023-05-09T01:30:26.402Z,26.34
2023-05-09T01:31:26.503Z,26.34
2023-05-09T01:32:26.520Z,26.33
2023-05-09T01:33:26.530Z,26.34
2023-05-09T01:34:26.573Z,26.34
2023-05-09T01:35:26.633Z,26.33
2023-05-09T01:36:26.671Z,26.33
2023-05-09T01:37:26.676Z,26.33
2023-05-09T01:38:26.759Z,26.34
2023-05-09T01:39:26.770Z,26.34
2023-05-09T01:40:26.859Z,26.34
2023-05-09T01:41:26.881Z,26.33
2023-05-09T01:42:26.994Z,26.33
2023-05-09T01:43:26.973Z,26.33
2023-05-09T01:44:27.024Z,26.33
2023-05-09T01:45:27.074Z,26.33
2023-05-09T01:46:27.146Z,26.33
2023-05-09T01:47:27.196Z,26.33
2023-05-09T01:48:27.228Z,26.34
2023-05-09T01:49:27.232Z,26.33
2023-05-09T01:50:27.289Z,26.34
2023-05-09T01:51:27.329Z,26.34
2023-05-09T01:52:27.391Z,26.33
2023-05-09T01:53:27.443Z,26.33
2023-05-09T01:54:27.480Z,26.33
2023-05-09T01:55:27.507Z,26.33
2023-05-09T01:56:27.583Z,26.33
2023-05-09T01:57:27.619Z,26.34
2023-05-09T01:58:27.776Z,26.33
2023-05-09T01:59:27.771Z,26.33
2023-05-09T02:00:27.906Z,26.33
2023-05-09T02:01:27.812Z,26.33
2023-05-09T02:02:27.880Z,26.34
2023-05-09T02:03:27.902Z,26.33
2023-05-09T02:04:27.924Z,26.33
2023-05-09T02:05:27.980Z,26.33
2023-05-09T02:06:28.017Z,26.33
2023-05-09T02:07:28.075Z,26.33
2023-05-09T02:08:28.132Z,26.33
2023-05-09T02:09:28.182Z,26.34
2023-05-09T02:10:28.212Z,26.34
2023-05-09T02:11:28.246Z,26.33
2023-05-09T02:12:28.322Z,26.33
2023-05-09T02:13:28.423Z,26.34
2023-05-09T02:14:28.499Z,26.34
2023-05-09T02:15:28.478Z,26.34
2023-05-09T02:16:28.505Z,26.33
2023-05-09T02:17:28.547Z,26.34
2023-05-09T02:18:28.597Z,26.33
2023-05-09T02:19:28.695Z,26.33
2023-05-09T02:20:28.705Z,26.33
2023-05-09T02:21:29.256Z,26.33
2023-05-09T02:22:28.763Z,26.33
2023-05-09T02:23:28.808Z,26.33
2023-05-09T02:24:28.835Z,26.33
2023-05-09T02:25:28.934Z,26.33
2023-05-09T02:26:28.955Z,26.33
2023-05-09T02:27:28.999Z,26.33
2023-05-09T02:28:29.038Z,26.33
2023-05-09T02:29:29.090Z,26.33
2023-05-09T02:30:29.218Z,26.33
2023-05-09T02:31:29.184Z,26.33
2023-05-09T02:32:29.313Z,26.33
2023-05-09T02:33:29.284Z,26.33
2023-05-09T02:34:29.292Z,26.33
2023-05-09T02:35:29.377Z,26.33
2023-05-09T02:36:29.396Z,26.33
2023-05-09T02:37:29.466Z,26.33
2023-05-09T02:38:29.506Z,26.33
2023-05-09T02:39:29.533Z,26.33
2023-05-09T02:40:29.574Z,26.32
2023-05-09T02:41:29.641Z,26.33
2023-05-09T02:42:29.683Z,26.33
2023-05-09T02:43:29.726Z,26.32
2023-05-09T02:44:29.739Z,26.33
2023-05-09T02:45:29.812Z,26.32
2023-05-09T02:46:29.970Z,26.33
2023-05-09T02:47:29.928Z,26.33
2023-05-09T02:48:29.939Z,26.33
2023-05-09T02:49:32.560Z,26.33
2023-05-09T02:50:29.979Z,26.32
2023-05-09T02:51:29.957Z,26.33
2023-05-09T02:52:30.500Z,26.33
2023-05-09T02:53:29.933Z,26.33
2023-05-09T02:54:29.958Z,26.33
2023-05-09T02:55:29.933Z,26.32
2023-05-09T02:56:29.899Z,26.32
2023-05-09T02:57:29.895Z,26.33
2023-05-09T02:58:29.898Z,26.32
2023-05-09T02:59:29.894Z,26.32
2023-05-09T03:00:29.928Z,26.33
2023-05-09T03:01:29.924Z,26.32
2023-05-09T03:02:30.044Z,26.33
2023-05-09T03:03:29.931Z,26.32
2023-05-09T03:04:29.860Z,26.32
2023-05-09T03:05:29.860Z,26.33
2023-05-09T03:06:29.866Z,26.32
2023-05-09T03:07:29.868Z,26.32
2023-05-09T03:08:29.831Z,26.33
2023-05-09T03:09:29.818Z,26.32
2023-05-09T03:10:29.853Z,26.33
2023-05-09T03:11:29.795Z,26.33
2023-05-09T03:12:29.834Z,26.32
2023-05-09T03:13:29.839Z,26.33
2023-05-09T03:14:29.799Z,26.33
2023-05-09T03:15:29.775Z,26.33
2023-05-09T03:16:29.950Z,26.33
2023-05-09T03:17:29.817Z,26.33
2023-05-09T03:18:29.864Z,26.32
2023-05-09T03:19:29.779Z,26.33
2023-05-09T03:20:29.752Z,26.32
2023-05-09T03:21:29.762Z,26.32
2023-05-09T03:22:29.764Z,26.32
2023-05-09T03:23:29.741Z,26.33
2023-05-09T03:24:29.729Z,26.32
2023-05-09T03:25:29.744Z,26.32
2023-05-09T03:26:29.743Z,26.32
2023-05-09T03:27:29.711Z,26.33
2023-05-09T03:28:29.721Z,26.32
2023-05-09T03:29:29.697Z,26.33
2023-05-09T03:30:29.723Z,26.32
2023-05-09T03:31:29.774Z,26.32
2023-05-09T03:32:29.876Z,26.31
2023-05-09T03:33:29.801Z,26.32
2023-05-09T03:34:29.929Z,26.32
2023-05-09T03:35:29.922Z,26.32
2023-05-09T03:36:29.930Z,26.32
2023-05-09T03:37:29.974Z,26.32
2023-05-09T03:38:30.070Z,26.32
2023-05-09T03:39:30.096Z,26.32
2023-05-09T03:40:30.116Z,26.32
2023-05-09T03:41:30.149Z,26.32
2023-05-09T03:42:30.201Z,26.32
2023-05-09T03:43:30.236Z,26.32
2023-05-09T03:44:30.299Z,26.32
2023-05-09T03:45:30.344Z,26.32
2023-05-09T03:46:30.415Z,26.32
2023-05-09T03:47:30.511Z,26.33
2023-05-09T03:48:30.517Z,26.32
2023-05-09T03:49:30.501Z,26.32
2023-05-09T03:50:30.657Z,26.32
2023-05-09T03:51:30.578Z,26.32
2023-05-09T03:52:30.658Z,26.32
2023-05-09T03:53:30.686Z,26.33
2023-05-09T03:54:30.759Z,26.32
2023-05-09T03:55:30.775Z,26.33
2023-05-09T03:56:30.855Z,26.32
2023-05-09T03:57:30.874Z,26.32
2023-05-09T03:58:30.915Z,26.32
2023-05-09T03:59:30.966Z,26.32
2023-05-09T04:00:31.008Z,26.32
2023-05-09T04:01:31.051Z,26.32
2023-05-09T04:02:31.322Z,26.32
2023-05-09T04:03:31.205Z,26.33
2023-05-09T04:04:31.203Z,26.33
2023-05-09T04:05:31.256Z,26.32
2023-05-09T04:06:31.362Z,26.32
2023-05-09T04:07:31.299Z,26.32
2023-05-09T04:08:31.370Z,26.32
2023-05-09T04:09:31.393Z,26.32
2023-05-09T04:10:31.425Z,26.32
2023-05-09T04:11:31.489Z,26.32
2023-05-09T04:12:31.533Z,26.32
2023-05-09T04:13:31.644Z,26.32
2023-05-09T04:14:31.612Z,26.31
2023-05-09T04:15:31.680Z,26.32
2023-05-09T04:16:31.731Z,26.32
2023-05-09T04:17:31.801Z,26.32
2023-05-09T04:18:31.782Z,26.32
2023-05-09T04:19:31.857Z,26.32
2023-05-09T04:20:31.920Z,26.32
2023-05-09T04:21:31.976Z,26.33
2023-05-09T04:22:32.068Z,26.32
2023-05-09T04:23:32.053Z,26.33
2023-05-09T04:24:32.104Z,26.32
2023-05-09T04:25:32.132Z,26.33
2023-05-09T04:26:32.181Z,26.32
2023-05-09T04:27:32.200Z,26.32
2023-05-09T04:28:32.274Z,26.33
2023-05-09T04:29:32.318Z,26.32
2023-05-09T04:30:32.384Z,26.32
2023-05-09T04:31:32.470Z,26.32
2023-05-09T04:32:32.462Z,26.33
2023-05-09T04:33:32.452Z,26.32
2023-05-09T04:34:32.533Z,26.33
2023-05-09T04:35:32.634Z,26.32
2023-05-09T04:36:32.610Z,26.33
2023-05-09T04:37:32.736Z,26.32
2023-05-09T04:38:32.817Z,26.32
2023-05-09T04:39:32.740Z,26.33
2023-05-09T04:40:32.786Z,26.32
2023-05-09T04:41:32.824Z,26.32
2023-05-09T04:42:32.859Z,26.32
2023-05-09T04:43:32.927Z,26.33
2023-05-09T04:44:32.981Z,26.32
2023-05-09T04:45:33.012Z,26.33
2023-05-09T04:46:33.092Z,26.32
2023-05-09T04:47:33.126Z,26.33
2023-05-09T04:48:33.146Z,26.32
2023-05-09T04:49:33.202Z,26.32
2023-05-09T04:50:33.274Z,26.32
2023-05-09T04:51:33.296Z,26.32
2023-05-09T04:52:33.319Z,26.32
2023-05-09T04:53:33.383Z,26.32
2023-05-09T04:54:33.537Z,26.33
2023-05-09T04:55:33.470Z,26.32
2023-05-09T04:56:33.542Z,26.32
2023-05-09T04:57:33.583Z,26.32
2023-05-09T04:58:33.636Z,26.33
2023-05-09T04:59:33.696Z,26.33
2023-05-09T05:00:40.768Z,26.32
2023-05-09T05:01:33.803Z,26.32
2023-05-09T05:02:33.777Z,26.32
2023-05-09T05:03:33.729Z,26.32
2023-05-09T05:04:33.771Z,26.32
2023-05-09T05:05:36.768Z,26.32
2023-05-09T05:06:33.712Z,26.32
2023-05-09T05:07:33.693Z,26.32
2023-05-09T05:08:33.686Z,26.32
2023-05-09T05:09:33.675Z,26.32
2023-05-09T05:10:33.767Z,26.32
2023-05-09T05:11:33.697Z,26.32
2023-05-09T05:12:33.659Z,26.32
2023-05-09T05:13:33.634Z,26.32
2023-05-09T05:14:33.637Z,26.33
2023-05-09T05:15:33.626Z,26.32
2023-05-09T05:16:33.701Z,26.33
2023-05-09T05:17:33.662Z,26.32
2023-05-09T05:18:33.615Z,26.33
2023-05-09T05:19:33.650Z,26.32
2023-05-09T05:20:33.634Z,26.33
2023-05-09T05:21:33.614Z,26.33
2023-05-09T05:22:33.583Z,26.32
2023-05-09T05:23:33.576Z,26.32
2023-05-09T05:24:33.568Z,26.32
2023-05-09T05:25:33.581Z,26.32
2023-05-09T05:26:33.667Z,26.33
2023-05-09T05:27:33.558Z,26.33
2023-05-09T05:28:33.574Z,26.33
2023-05-09T05:29:33.556Z,26.33
2023-05-09T05:30:34.466Z,26.33
2023-05-09T05:31:33.638Z,26.33
2023-05-09T05:32:33.543Z,26.33
2023-05-09T05:33:33.538Z,26.33
2023-05-09T05:34:33.498Z,26.33
2023-05-09T05:35:33.498Z,26.30
2023-05-09T05:36:33.633Z,26.29
2023-05-09T05:37:33.554Z,26.27
2023-05-09T05:38:33.477Z,26.27
2023-05-09T05:39:33.540Z,26.28
2023-05-09T05:40:33.498Z,26.29
2023-05-09T05:41:33.628Z,26.29
2023-05-09T05:42:33.613Z,26.32
2023-05-09T05:43:33.627Z,26.35
2023-05-09T05:44:33.625Z,26.37
2023-05-09T05:45:40.726Z,26.40
2023-05-09T05:46:34.194Z,26.42
2023-05-09T05:47:33.658Z,26.45
2023-05-09T05:48:33.641Z,26.47
2023-05-09T05:49:33.614Z,26.50
2023-05-09T05:50:33.635Z,26.53
2023-05-09T05:51:33.619Z,26.56
2023-05-09T05:52:33.607Z,26.56
2023-05-09T05:53:33.627Z,26.56
2023-05-09T05:54:33.631Z,26.57
2023-05-09T05:55:33.607Z,26.55
2023-05-09T05:56:33.588Z,26.56
2023-05-09T05:57:33.614Z,26.57
2023-05-09T05:58:33.671Z,26.57
2023-05-09T05:59:33.565Z,26.57
2023-05-09T06:00:33.556Z,26.58
2023-05-09T06:01:33.585Z,26.59
2023-05-09T06:02:33.732Z,26.59
2023-05-09T06:03:33.631Z,26.60
2023-05-09T06:04:33.547Z,26.60
2023-05-09T06:05:33.573Z,26.59
2023-05-09T06:06:33.522Z,26.57
2023-05-09T06:07:34.169Z,26.59
2023-05-09T06:08:33.504Z,26.59
2023-05-09T06:09:33.547Z,26.60
2023-05-09T06:10:33.485Z,26.62
2023-05-09T06:11:33.513Z,26.63
2023-05-09T06:12:33.502Z,26.64
2023-05-09T06:13:33.494Z,26.63
2023-05-09T06:14:33.570Z,26.64
2023-05-09T06:15:33.482Z,26.65
2023-05-09T06:16:33.512Z,26.67
2023-05-09T06:17:33.529Z,26.67
2023-05-09T06:18:33.445Z,26.68
2023-05-09T06:19:33.429Z,26.69
2023-05-09T06:20:33.470Z,26.68
2023-05-09T06:21:33.520Z,26.71
2023-05-09T06:22:34.159Z,26.71
2023-05-09T06:23:33.578Z,26.71
2023-05-09T06:24:36.242Z,26.71
2023-05-09T06:25:33.588Z,26.71
2023-05-09T06:26:33.613Z,26.69
2023-05-09T06:27:33.652Z,26.69
2023-05-09T06:28:33.581Z,26.68
2023-05-09T06:29:33.601Z,26.70
2023-05-09T06:30:33.684Z,26.71
2023-05-09T06:31:33.657Z,26.70
2023-05-09T06:32:33.627Z,26.71
2023-05-09T06:33:33.554Z,26.71
2023-05-09T06:34:33.626Z,26.71
2023-05-09T06:35:33.562Z,26.70
2023-05-09T06:36:33.595Z,26.67
2023-05-09T06:37:33.491Z,26.67
2023-05-09T06:38:33.531Z,26.65
2023-05-09T06:39:33.501Z,26.63
2023-05-09T06:40:33.492Z,26.63
2023-05-09T06:41:33.474Z,26.64
2023-05-09T06:42:33.516Z,26.66
2023-05-09T06:43:33.495Z,26.68
2023-05-09T06:44:33.476Z,26.69
2023-05-09T06:45:33.526Z,26.71
2023-05-09T06:46:33.603Z,26.72
2023-05-09T06:47:33.739Z,26.74
2023-05-09T06:48:33.444Z,26.76
2023-05-09T06:49:33.429Z,26.80
2023-05-09T06:50:33.437Z,26.82
2023-05-09T06:51:33.459Z,26.84
2023-05-09T06:52:33.412Z,26.87
2023-05-09T06:53:33.784Z,26.88
2023-05-09T06:54:33.425Z,26.90
2023-05-09T06:55:33.408Z,26.92
2023-05-09T06:56:33.398Z,26.92
2023-05-09T06:57:33.396Z,26.94
2023-05-09T06:58:33.676Z,26.96
2023-05-09T06:59:33.441Z,26.96
2023-05-09T07:00:33.383Z,26.98
2023-05-09T07:01:33.421Z,27.01
2023-05-09T07:02:33.516Z,27.02
2023-05-09T07:03:33.351Z,27.03
2023-05-09T07:04:33.358Z,27.04
2023-05-09T07:05:33.339Z,27.06
2023-05-09T07:06:33.347Z,27.06
2023-05-09T07:07:33.321Z,27.07
2023-05-09T07:08:33.336Z,27.08
2023-05-09T07:09:33.316Z,27.10
2023-05-09T07:10:33.299Z,27.10
2023-05-09T07:11:33.315Z,27.09
2023-05-09T07:12:33.307Z,27.09
2023-05-09T07:13:33.733Z,27.11
2023-05-09T07:14:33.258Z,27.11
2023-05-09T07:15:41.240Z,27.13
2023-05-09T07:16:37.310Z,27.13
2023-05-09T07:17:33.309Z,27.13
2023-05-09T07:18:33.332Z,27.14
2023-05-09T07:19:33.267Z,27.14
2023-05-09T07:20:33.205Z,27.16
2023-05-09T07:21:33.219Z,27.15
2023-05-09T07:22:35.593Z,27.14
2023-05-09T07:23:33.230Z,27.14
2023-05-09T07:24:33.227Z,27.16
2023-05-09T07:25:33.215Z,27.16
2023-05-09T07:26:33.215Z,27.14
2023-05-09T07:27:33.192Z,27.14
2023-05-09T07:28:33.192Z,27.16
2023-05-09T07:29:33.160Z,27.17
2023-05-09T07:30:33.176Z,27.15
2023-05-09T07:31:34.553Z,27.15
2023-05-09T07:32:33.199Z,27.12
2023-05-09T07:33:33.156Z,27.03
2023-05-09T07:34:33.212Z,26.92
2023-05-09T07:35:33.166Z,26.84
2023-05-09T07:36:34.830Z,26.77
2023-05-09T07:37:33.097Z,26.71
2023-05-09T07:38:33.191Z,26.67
2023-05-09T07:39:33.120Z,26.62
2023-05-09T07:40:33.168Z,26.59
2023-05-09T07:41:33.202Z,26.58
2023-05-09T07:42:33.273Z,26.57
2023-05-09T07:43:33.717Z,26.56
2023-05-09T07:44:33.375Z,26.58
2023-05-09T07:45:33.426Z,26.57
2023-05-09T07:46:33.450Z,26.57
2023-05-09T07:47:33.516Z,26.59
2023-05-09T07:48:33.573Z,26.61
2023-05-09T07:49:33.612Z,26.59
2023-05-09T07:50:33.733Z,26.58
2023-05-09T07:51:33.733Z,26.52
2023-05-09T07:52:33.796Z,26.50
2023-05-09T07:53:33.831Z,26.43
2023-05-09T07:54:33.848Z,26.40
2023-05-09T07:55:33.938Z,26.38
2023-05-09T07:56:33.997Z,26.40
2023-05-09T07:57:34.069Z,26.43
2023-05-09T07:58:34.141Z,26.46
2023-05-09T07:59:34.164Z,26.47
2023-05-09T08:00:34.215Z,26.50
2023-05-09T08:01:34.283Z,26.52
2023-05-09T08:02:34.439Z,26.55
2023-05-09T08:03:34.530Z,26.58
2023-05-09T08:04:34.599Z,26.59
2023-05-09T08:05:34.518Z,26.58
2023-05-09T08:06:34.647Z,26.59
2023-05-09T08:07:34.608Z,26.56
2023-05-09T08:08:34.661Z,26.53
2023-05-09T08:09:34.735Z,26.55
2023-05-09T08:10:34.770Z,26.57
2023-05-09T08:11:34.816Z,26.60
2023-05-09T08:12:34.848Z,26.65
2023-05-09T08:13:35.253Z,26.69
2023-05-09T08:14:34.905Z,26.72
2023-05-09T08:15:35.002Z,26.75
2023-05-09T08:16:35.041Z,26.76
2023-05-09T08:17:35.769Z,26.79
2023-05-09T08:18:35.006Z,26.81
2023-05-09T08:19:35.198Z,26.85
2023-05-09T08:20:35.026Z,26.88
2023-05-09T08:21:35.059Z,26.90
2023-05-09T08:22:35.158Z,26.93
2023-05-09T08:23:35.069Z,26.97
2023-05-09T08:24:35.248Z,27.00
2023-05-09T08:25:35.126Z,27.05
2023-05-09T08:26:35.078Z,27.12
2023-05-09T08:27:35.121Z,27.18
2023-05-09T08:28:35.226Z,27.24
2023-05-09T08:29:35.282Z,27.29
2023-05-09T08:30:35.330Z,27.35
2023-05-09T08:31:35.472Z,27.36
2023-05-09T08:32:35.405Z,27.38
2023-05-09T08:33:35.482Z,27.39
2023-05-09T08:34:35.738Z,27.39
2023-05-09T08:35:35.590Z,27.39
2023-05-09T08:36:35.596Z,27.39
2023-05-09T08:37:35.932Z,27.38
2023-05-09T08:38:35.781Z,27.37
2023-05-09T08:39:35.746Z,27.36
2023-05-09T08:40:35.778Z,27.36
2023-05-09T08:41:35.823Z,27.34
2023-05-09T08:42:35.890Z,27.33
2023-05-09T08:43:35.922Z,27.33
2023-05-09T08:44:35.999Z,27.30
2023-05-09T08:45:36.146Z,27.30
2023-05-09T08:46:36.082Z,27.29
2023-05-09T08:47:36.196Z,27.30
2023-05-09T08:48:36.252Z,27.30
2023-05-09T08:49:36.296Z,27.28
2023-05-09T08:50:36.367Z,27.27
2023-05-09T08:51:36.412Z,27.20
2023-05-09T08:52:36.419Z,27.20
2023-05-09T08:53:36.429Z,27.23
2023-05-09T08:54:36.562Z,27.25
2023-05-09T08:55:36.527Z,27.26
2023-05-09T08:56:36.586Z,27.31
2023-05-09T08:57:36.711Z,27.33
2023-05-09T08:58:36.739Z,27.36
2023-05-09T08:59:37.218Z,27.38
2023-05-09T09:00:36.825Z,27.40
2023-05-09T09:01:36.913Z,27.43
2023-05-09T09:02:36.993Z,27.45
2023-05-09T09:03:37.004Z,27.48
2023-05-09T09:04:37.109Z,27.50
2023-05-09T09:05:41.716Z,27.53
2023-05-09T09:06:38.095Z,27.55
2023-05-09T09:07:37.086Z,27.58
2023-05-09T09:08:37.098Z,27.60
2023-05-09T09:09:37.111Z,27.62
2023-05-09T09:10:37.150Z,27.66
2023-05-09T09:11:37.071Z,27.67
2023-05-09T09:12:37.034Z,27.69
2023-05-09T09:13:37.030Z,27.71
2023-05-09T09:14:38.016Z,27.73
2023-05-09T09:15:37.097Z,27.75
2023-05-09T09:16:37.076Z,27.76
2023-05-09T09:17:37.117Z,27.77
2023-05-09T09:18:38.181Z,27.80
2023-05-09T09:19:37.292Z,27.81
2023-05-09T09:20:37.002Z,27.82
2023-05-09T09:21:37.089Z,27.83
2023-05-09T09:22:36.985Z,27.86
2023-05-09T09:23:36.975Z,27.89
2023-05-09T09:24:37.032Z,27.91
2023-05-09T09:25:36.973Z,27.92
2023-05-09T09:26:37.056Z,27.93
2023-05-09T09:27:36.955Z,27.93
2023-05-09T09:28:36.997Z,27.91
2023-05-09T09:29:37.003Z,27.91
2023-05-09T09:30:37.002Z,27.90
2023-05-09T09:31:37.066Z,27.88
2023-05-09T09:32:37.113Z,27.87
2023-05-09T09:33:37.086Z,27.89
2023-05-09T09:34:37.054Z,27.89
2023-05-09T09:35:37.272Z,27.90
2023-05-09T09:36:37.131Z,27.93
2023-05-09T09:37:37.125Z,27.95
2023-05-09T09:38:37.160Z,27.98
2023-05-09T09:39:37.130Z,28.02
2023-05-09T09:40:37.162Z,28.06
2023-05-09T09:41:37.161Z,28.05
2023-05-09T09:42:37.249Z,28.03
2023-05-09T09:43:37.203Z,27.94
2023-05-09T09:44:37.235Z,27.85
2023-05-09T09:45:37.432Z,27.78
2023-05-09T09:46:37.480Z,27.74
2023-05-09T09:47:37.413Z,27.71
2023-05-09T09:48:37.403Z,27.69
2023-05-09T09:49:37.476Z,27.68
2023-05-09T09:50:37.796Z,27.64
2023-05-09T09:51:37.538Z,27.61
2023-05-09T09:52:37.651Z,27.58
2023-05-09T09:53:37.649Z,27.57
2023-05-09T09:54:37.741Z,27.55
2023-05-09T09:55:37.782Z,27.54
2023-05-09T09:56:37.838Z,27.53
2023-05-09T09:57:37.929Z,27.54
2023-05-09T09:58:38.033Z,27.53
2023-05-09T09:59:37.997Z,27.53
2023-05-09T10:00:38.257Z,27.53
2023-05-09T10:01:38.131Z,27.52
2023-05-09T10:02:38.196Z,27.52
2023-05-09T10:03:38.808Z,27.50
2023-05-09T10:04:38.256Z,27.48
2023-05-09T10:05:38.793Z,27.45
2023-05-09T10:06:38.406Z,27.39
2023-05-09T10:07:38.467Z,27.36
2023-05-09T10:08:38.571Z,27.33
2023-05-09T10:09:38.650Z,27.32
2023-05-09T10:10:38.639Z,27.33
2023-05-09T10:11:38.672Z,27.30
2023-05-09T10:12:38.730Z,27.29
2023-05-09T10:13:38.862Z,27.29
2023-05-09T10:14:38.912Z,27.32
2023-05-09T10:15:52.212Z,27.32
2023-05-09T10:16:43.956Z,27.32
2023-05-09T10:17:38.964Z,27.33
2023-05-09T10:18:38.943Z,27.34
2023-05-09T10:19:38.818Z,27.36
2023-05-09T10:20:38.776Z,27.36
2023-05-09T10:21:38.788Z,27.37
2023-05-09T10:22:38.802Z,27.35
2023-05-09T10:23:38.776Z,27.33
2023-05-09T10:24:38.793Z,27.28
2023-05-09T10:25:38.780Z,27.28
2023-05-09T10:26:38.767Z,27.29
2023-05-09T10:27:38.762Z,27.29
2023-05-09T10:28:38.744Z,27.30
2023-05-09T10:29:38.748Z,27.29
2023-05-09T10:30:38.854Z,27.30
2023-05-09T10:31:38.782Z,27.33
2023-05-09T10:32:38.736Z,27.36
2023-05-09T10:33:38.725Z,27.38
2023-05-09T10:34:38.699Z,27.38
2023-05-09T10:35:38.679Z,27.35
2023-05-09T10:36:38.722Z,27.32
2023-05-09T10:37:38.727Z,27.22
2023-05-09T10:38:38.666Z,27.15
2023-05-09T10:39:38.673Z,27.11
2023-05-09T10:40:38.817Z,27.12
2023-05-09T10:41:38.671Z,27.17
2023-05-09T10:42:38.658Z,27.22
2023-05-09T10:43:38.623Z,27.28
2023-05-09T10:44:38.635Z,27.32
2023-05-09T10:45:38.647Z,27.34
2023-05-09T10:46:38.742Z,27.35
2023-05-09T10:47:38.728Z,27.35
2023-05-09T10:48:38.740Z,27.34
2023-05-09T10:49:38.618Z,27.35
2023-05-09T10:50:38.630Z,27.35
2023-05-09T10:51:38.616Z,27.36
2023-05-09T10:52:38.595Z,27.37
2023-05-09T10:53:38.590Z,27.40
2023-05-09T10:54:38.648Z,27.40
2023-05-09T10:55:38.613Z,27.40
2023-05-09T10:56:38.584Z,27.44
2023-05-09T10:57:38.616Z,27.47
2023-05-09T10:58:38.610Z,27.39
2023-05-09T10:59:38.545Z,27.29
2023-05-09T11:00:38.818Z,27.26
2023-05-09T11:01:38.579Z,27.23
2023-05-09T11:02:38.673Z,27.22
2023-05-09T11:03:38.577Z,27.25
2023-05-09T11:04:38.556Z,27.32
2023-05-09T11:05:38.807Z,27.34
2023-05-09T11:06:38.514Z,27.36
2023-05-09T11:07:38.615Z,27.39
2023-05-09T11:08:38.532Z,27.42
2023-05-09T11:09:38.614Z,27.45
2023-05-09T11:10:38.612Z,27.37
2023-05-09T11:11:38.635Z,27.20
2023-05-09T11:12:38.587Z,27.11
2023-05-09T11:13:38.609Z,27.08
2023-05-09T11:14:38.633Z,26.93
2023-05-09T11:15:38.680Z,26.80
2023-05-09T11:16:38.891Z,26.76
2023-05-09T11:17:38.865Z,26.83
2023-05-09T11:18:39.021Z,26.86
2023-05-09T11:19:38.900Z,26.90
2023-05-09T11:20:38.961Z,26.77
2023-05-09T11:21:39.026Z,26.76
2023-05-09T11:22:39.099Z,26.81
2023-05-09T11:23:39.153Z,26.89
2023-05-09T11:24:39.177Z,26.90
2023-05-09T11:25:39.305Z,26.93
2023-05-09T11:26:39.290Z,26.95
2023-05-09T11:27:39.313Z,26.99
2023-05-09T11:28:39.303Z,27.01
2023-05-09T11:29:39.345Z,27.06
2023-05-09T11:30:39.805Z,27.11
2023-05-09T11:31:39.416Z,27.14
2023-05-09T11:32:39.429Z,27.18
2023-05-09T11:33:39.399Z,27.21
2023-05-09T11:34:39.533Z,27.23
2023-05-09T11:35:39.818Z,27.26
2023-05-09T11:36:39.541Z,27.29
2023-05-09T11:37:39.629Z,27.32
2023-05-09T11:38:39.654Z,27.33
2023-05-09T11:39:40.302Z,27.35
2023-05-09T11:40:39.787Z,27.36
2023-05-09T11:41:39.827Z,27.38
2023-05-09T11:42:39.862Z,27.40
2023-05-09T11:43:39.952Z,27.40
2023-05-09T11:44:39.974Z,27.41
2023-05-09T11:45:40.043Z,27.43
2023-05-09T11:46:40.067Z,27.44
2023-05-09T11:47:40.103Z,27.45
2023-05-09T11:48:40.148Z,27.47
2023-05-09T11:49:40.188Z,27.47
2023-05-09T11:50:40.322Z,27.47
2023-05-09T11:51:40.297Z,27.48
2023-05-09T11:52:40.322Z,27.49
2023-05-09T11:53:40.356Z,27.50
2023-05-09T11:54:40.416Z,27.50
2023-05-09T11:55:40.442Z,27.51
2023-05-09T11:56:40.485Z,27.52
2023-05-09T11:57:40.526Z,27.52
2023-05-09T11:58:40.525Z,27.52
2023-05-09T11:59:40.557Z,27.54
2023-05-09T12:00:40.592Z,27.53
2023-05-09T12:01:40.612Z,27.53
2023-05-09T12:02:40.711Z,27.55
2023-05-09T12:03:40.797Z,27.54
2023-05-09T12:04:40.885Z,27.54
2023-05-09T12:05:40.721Z,27.54
2023-05-09T12:06:40.866Z,27.54
2023-05-09T12:07:40.802Z,27.55
2023-05-09T12:08:40.843Z,27.56
2023-05-09T12:09:40.898Z,27.56
2023-05-09T12:10:40.905Z,27.57
2023-05-09T12:11:40.958Z,27.57
2023-05-09T12:12:41.001Z,27.58
2023-05-09T12:13:40.976Z,27.58
2023-05-09T12:14:41.769Z,27.58
2023-05-09T12:15:43.896Z,27.59
2023-05-09T12:16:41.083Z,27.60
2023-05-09T12:17:41.058Z,27.61
2023-05-09T12:18:41.012Z,27.60
2023-05-09T12:19:41.024Z,27.60
2023-05-09T12:20:41.014Z,27.61
2023-05-09T12:21:41.006Z,27.60
2023-05-09T12:22:41.198Z,27.61
2023-05-09T12:23:40.986Z,27.60
2023-05-09T12:24:40.998Z,27.61
2023-05-09T12:25:40.978Z,27.61
2023-05-09T12:26:40.960Z,27.60
2023-05-09T12:27:41.009Z,27.61
2023-05-09T12:28:40.964Z,27.62
2023-05-09T12:29:40.928Z,27.65
2023-05-09T12:30:40.958Z,27.66
2023-05-09T12:31:40.990Z,27.67
2023-05-09T12:32:40.907Z,27.67
2023-05-09T12:33:40.946Z,27.68
2023-05-09T12:34:40.888Z,27.69
2023-05-09T12:35:40.904Z,27.70
2023-05-09T12:36:40.904Z,27.74
2023-05-09T12:37:40.889Z,27.75
2023-05-09T12:38:40.985Z,27.77
2023-05-09T12:39:40.851Z,27.79
2023-05-09T12:40:40.875Z,27.81
2023-05-09T12:41:46.976Z,27.84
2023-05-09T12:42:41.836Z,27.86
2023-05-09T12:43:40.859Z,27.88
2023-05-09T12:44:40.820Z,27.89
2023-05-09T12:45:40.844Z,27.90
2023-05-09T12:46:40.844Z,27.92
2023-05-09T12:47:40.819Z,27.93
2023-05-09T12:48:40.841Z,27.92
2023-05-09T12:49:40.831Z,27.94
2023-05-09T12:50:40.825Z,27.96
2023-05-09T12:51:40.797Z,27.98
2023-05-09T12:52:54.135Z,27.99